createdAt,value
2017-11-05T00:00:28.670Z,0.00
2017-11-05T00:02:21.561Z,0.00
2017-11-05T00:03:21.546Z,0.00
2017-11-05T00:05:14.496Z,0.00
2017-11-05T00:06:14.491Z,0.00
2017-11-05T00:08:07.392Z,0.00
2017-11-05T00:09:07.365Z,0.00
2017-11-05T00:11:00.251Z,0.00
2017-11-05T00:12:00.230Z,0.00
2017-11-05T00:13:53.092Z,0.00
2017-11-05T00:14:53.088Z,0.00
2017-11-05T00:16:45.985Z,0.00
2017-11-05T00:17:45.948Z,0.00
2017-11-05T00:19:38.822Z,0.00
2017-11-05T00:20:38.816Z,0.00
2017-11-05T00:22:31.700Z,0.00
2017-11-05T00:23:31.674Z,0.00
2017-11-05T00:25:24.540Z,0.00
2017-11-05T00:26:24.542Z,0.00
2017-11-05T00:28:17.433Z,0.00
2017-11-05T00:29:17.406Z,0.00
2017-11-05T00:31:10.284Z,0.00
2017-11-05T00:32:10.262Z,0.00
2017-11-05T00:34:03.125Z,0.00
2017-11-05T00:35:03.116Z,0.00
2017-11-05T00:36:56.000Z,0.00
2017-11-05T00:37:55.965Z,0.00
2017-11-05T00:39:48.843Z,0.00
2017-11-05T00:40:48.836Z,0.00
2017-11-05T00:42:41.719Z,0.00
2017-11-05T00:43:41.698Z,0.00
2017-11-05T00:45:34.569Z,0.00
2017-11-05T00:46:34.555Z,0.00
2017-11-05T00:48:27.440Z,0.00
2017-11-05T00:49:27.413Z,0.00
2017-11-05T00:51:20.302Z,0.00
2017-11-05T00:52:20.278Z,0.00
2017-11-05T00:54:13.157Z,0.00
2017-11-05T00:55:13.135Z,0.00
2017-11-05T00:57:06.018Z,0.00
2017-11-05T00:58:05.993Z,0.00
2017-11-05T00:59:58.863Z,0.00
2017-11-05T01:00:58.855Z,0.00
2017-11-05T01:02:51.739Z,0.00
2017-11-05T01:03:51.716Z,0.00
2017-11-05T01:05:44.577Z,0.00
2017-11-05T01:06:44.559Z,0.00
2017-11-05T01:08:37.454Z,0.00
2017-11-05T01:09:37.430Z,0.00
2017-11-05T01:11:30.322Z,0.00
2017-11-05T01:12:30.290Z,0.00
2017-11-05T01:14:23.156Z,0.00
2017-11-05T01:15:23.144Z,0.00
2017-11-05T01:17:16.029Z,0.00
2017-11-05T01:18:16.005Z,0.00
2017-11-05T01:20:08.870Z,0.00
2017-11-05T01:21:08.864Z,0.00
2017-11-05T01:23:01.744Z,0.00
2017-11-05T01:24:01.720Z,0.00
2017-11-05T01:25:54.592Z,0.00
2017-11-05T01:26:54.583Z,0.00
2017-11-05T01:28:47.480Z,0.00
2017-11-05T01:29:47.458Z,0.00
2017-11-05T01:31:40.365Z,0.00
2017-11-05T01:32:40.315Z,0.00
2017-11-05T01:34:33.182Z,0.00
2017-11-05T01:35:33.172Z,0.00
2017-11-05T01:37:26.056Z,0.00
2017-11-05T01:38:26.030Z,0.00
2017-11-05T01:40:18.900Z,0.00
2017-11-05T01:41:18.897Z,0.00
2017-11-05T01:43:11.775Z,0.00
2017-11-05T01:44:11.755Z,0.00
2017-11-05T01:46:04.623Z,0.00
2017-11-05T01:47:04.619Z,0.00
2017-11-05T01:48:57.521Z,0.00
2017-11-05T01:49:57.490Z,0.00
2017-11-05T01:51:50.375Z,0.00
2017-11-05T01:52:50.343Z,0.00
2017-11-05T01:54:43.209Z,0.00
2017-11-05T01:55:43.206Z,0.00
2017-11-05T01:57:36.084Z,0.00
2017-11-05T01:58:36.066Z,0.00
2017-11-05T02:00:28.938Z,0.00
2017-11-05T02:01:28.929Z,0.00
2017-11-05T02:03:21.819Z,0.00
2017-11-05T02:04:21.791Z,0.00
2017-11-05T02:06:14.660Z,0.00
2017-11-05T02:07:14.654Z,0.00
2017-11-05T02:09:07.562Z,0.00
2017-11-05T02:10:07.536Z,0.00
2017-11-05T02:12:00.521Z,0.00
2017-11-05T02:13:00.416Z,0.00
2017-11-05T02:14:53.270Z,0.00
2017-11-05T02:15:53.265Z,0.00
2017-11-05T02:17:46.147Z,0.00
2017-11-05T02:18:46.121Z,0.00
2017-11-05T02:20:38.993Z,0.00
2017-11-05T02:21:38.984Z,0.00
2017-11-05T02:23:31.870Z,0.00
2017-11-05T02:24:31.844Z,0.00
2017-11-05T02:26:24.733Z,0.00
2017-11-05T02:27:24.706Z,0.00
2017-11-05T02:29:17.574Z,0.00
2017-11-05T02:30:17.573Z,0.00
2017-11-05T02:32:10.452Z,0.00
2017-11-05T02:33:10.426Z,0.00
2017-11-05T02:35:03.294Z,0.00
2017-11-05T02:36:03.285Z,0.00
2017-11-05T02:37:56.174Z,0.00
2017-11-05T02:38:56.155Z,0.00
2017-11-05T02:40:49.015Z,0.00
2017-11-05T02:41:49.011Z,0.00
2017-11-05T02:43:41.893Z,0.00
2017-11-05T02:44:41.871Z,0.00
2017-11-05T02:46:34.762Z,0.00
2017-11-05T02:47:34.736Z,0.00
2017-11-05T02:49:27.601Z,0.00
2017-11-05T02:50:27.597Z,0.00
2017-11-05T02:52:20.479Z,0.00
2017-11-05T02:53:20.454Z,0.00
2017-11-05T02:55:13.325Z,0.00
2017-11-05T02:56:13.322Z,0.00
2017-11-05T02:58:06.209Z,0.00
2017-11-05T02:59:06.185Z,0.00
2017-11-05T03:00:59.056Z,0.00
2017-11-05T03:01:59.049Z,0.00
2017-11-05T03:03:51.932Z,0.00
2017-11-05T03:04:51.909Z,0.00
2017-11-05T03:06:44.794Z,0.00
2017-11-05T03:07:44.768Z,0.00
2017-11-05T03:09:37.638Z,0.00
2017-11-05T03:10:37.632Z,0.00
2017-11-05T03:12:30.521Z,0.00
2017-11-05T03:13:30.492Z,0.00
2017-11-05T03:15:23.358Z,0.00
2017-11-05T03:16:23.355Z,0.00
2017-11-05T03:18:16.242Z,0.00
2017-11-05T03:19:16.217Z,0.00
2017-11-05T03:21:09.102Z,0.00
2017-11-05T03:22:09.091Z,0.00
2017-11-05T03:24:01.976Z,0.00
2017-11-05T03:25:01.951Z,0.00
2017-11-05T03:26:54.849Z,0.00
2017-11-05T03:27:54.813Z,0.00
2017-11-05T03:29:47.692Z,0.00
2017-11-05T03:30:47.687Z,0.00
2017-11-05T03:32:40.572Z,0.00
2017-11-05T03:33:40.549Z,0.00
2017-11-05T03:35:33.415Z,0.00
2017-11-05T03:36:33.408Z,0.00
2017-11-05T03:38:26.297Z,0.00
2017-11-05T03:39:26.275Z,0.00
2017-11-05T03:41:19.147Z,0.00
2017-11-05T03:42:19.136Z,0.00
2017-11-05T03:44:12.030Z,0.00
2017-11-05T03:45:12.005Z,0.00
2017-11-05T03:47:04.900Z,0.00
2017-11-05T03:48:04.874Z,0.00
2017-11-05T03:49:57.745Z,0.00
2017-11-05T03:50:57.738Z,0.00
2017-11-05T03:52:50.623Z,0.00
2017-11-05T03:53:50.600Z,0.00
2017-11-05T03:55:43.471Z,0.00
2017-11-05T03:56:43.459Z,0.00
2017-11-05T03:58:36.356Z,0.00
2017-11-05T03:59:36.329Z,0.00
2017-11-05T04:01:29.226Z,0.00
2017-11-05T04:02:29.213Z,0.00
2017-11-05T04:04:22.105Z,0.00
2017-11-05T04:05:22.075Z,0.00
2017-11-05T04:07:14.984Z,0.00
2017-11-05T04:08:14.966Z,0.00
2017-11-05T04:10:07.834Z,0.00
2017-11-05T04:11:07.831Z,0.00
2017-11-05T04:13:00.710Z,0.00
2017-11-05T04:14:00.690Z,0.00
2017-11-05T04:15:53.562Z,0.00
2017-11-05T04:16:53.556Z,0.00
2017-11-05T04:18:46.442Z,0.00
2017-11-05T04:19:46.423Z,0.00
2017-11-05T04:21:39.289Z,0.00
2017-11-05T04:22:39.287Z,0.00
2017-11-05T04:24:32.180Z,0.00
2017-11-05T04:25:32.157Z,0.00
2017-11-05T04:27:25.061Z,0.00
2017-11-05T04:28:25.040Z,0.00
2017-11-05T04:30:17.910Z,0.00
2017-11-05T04:31:17.901Z,0.00
2017-11-05T04:33:10.790Z,0.00
2017-11-05T04:34:10.765Z,0.00
2017-11-05T04:36:03.637Z,0.00
2017-11-05T04:37:03.628Z,0.00
2017-11-05T04:38:56.527Z,0.00
2017-11-05T04:39:56.499Z,0.00
2017-11-05T04:41:49.378Z,0.00
2017-11-05T04:42:49.370Z,0.00
2017-11-05T04:44:42.269Z,0.00
2017-11-05T04:45:42.243Z,0.00
2017-11-05T04:47:35.135Z,0.00
2017-11-05T04:48:35.113Z,0.00
2017-11-05T04:50:27.979Z,0.00
2017-11-05T04:51:27.972Z,0.00
2017-11-05T04:53:20.861Z,0.00
2017-11-05T04:54:20.838Z,0.00
2017-11-05T04:56:13.707Z,0.00
2017-11-05T04:57:13.698Z,0.00
2017-11-05T04:59:06.599Z,0.00
2017-11-05T05:00:06.563Z,0.00
2017-11-05T05:02:00.039Z,0.00
2017-11-05T05:02:59.630Z,0.00
2017-11-05T05:04:52.503Z,0.00
2017-11-05T05:05:52.497Z,0.00
2017-11-05T05:07:45.387Z,0.00
2017-11-05T05:08:45.363Z,0.00
2017-11-05T05:10:38.232Z,0.00
2017-11-05T05:11:38.226Z,0.00
2017-11-05T05:13:31.122Z,0.00
2017-11-05T05:14:31.094Z,0.00
2017-11-05T05:16:23.966Z,0.00
2017-11-05T05:17:23.954Z,0.00
2017-11-05T05:19:16.846Z,0.00
2017-11-05T05:20:16.820Z,0.00
2017-11-05T05:22:09.708Z,0.00
2017-11-05T05:23:09.686Z,0.00
2017-11-05T05:25:02.559Z,0.00
2017-11-05T05:26:02.552Z,0.00
2017-11-05T05:27:55.442Z,0.00
2017-11-05T05:28:55.422Z,0.00
2017-11-05T05:30:48.293Z,0.00
2017-11-05T05:31:48.282Z,0.00
2017-11-05T05:33:41.179Z,0.00
2017-11-05T05:34:41.151Z,0.00
2017-11-05T05:36:34.022Z,0.00
2017-11-05T05:37:34.019Z,0.00
2017-11-05T05:39:26.902Z,0.00
2017-11-05T05:40:26.879Z,0.00
2017-11-05T05:42:19.772Z,0.00
2017-11-05T05:43:19.746Z,0.00
2017-11-05T05:45:12.615Z,0.00
2017-11-05T05:46:12.609Z,0.00
2017-11-05T05:48:05.502Z,0.00
2017-11-05T05:49:05.473Z,0.00
2017-11-05T05:50:58.345Z,0.00
2017-11-05T05:51:58.339Z,0.00
2017-11-05T05:53:51.234Z,0.00
2017-11-05T05:54:51.208Z,0.00
2017-11-05T05:56:44.076Z,0.00
2017-11-05T05:57:44.069Z,4.00
2017-11-05T05:59:36.992Z,0.00
2017-11-05T06:00:36.967Z,0.00
2017-11-05T06:02:29.856Z,4.00
2017-11-05T06:03:29.839Z,0.00
2017-11-05T06:05:22.703Z,4.00
2017-11-05T06:06:22.696Z,4.00
2017-11-05T06:08:15.594Z,4.00
2017-11-05T06:09:15.569Z,8.00
2017-11-05T06:11:08.445Z,8.00
2017-11-05T06:12:08.444Z,8.00
2017-11-05T06:14:01.335Z,8.00
2017-11-05T06:15:01.315Z,8.00
2017-11-05T06:16:54.179Z,12.00
2017-11-05T06:17:54.177Z,12.00
2017-11-05T06:19:47.065Z,16.00
2017-11-05T06:20:47.037Z,20.00
2017-11-05T06:22:39.927Z,24.00
2017-11-05T06:23:39.910Z,28.00
2017-11-05T06:25:32.775Z,32.00
2017-11-05T06:26:32.780Z,36.00
2017-11-05T06:28:25.658Z,44.00
2017-11-05T06:29:25.638Z,52.00
2017-11-05T06:31:18.505Z,80.00
2017-11-05T06:32:18.503Z,92.00
2017-11-05T06:34:11.392Z,100.00
2017-11-05T06:35:11.370Z,104.00
2017-11-05T06:37:04.249Z,116.00
2017-11-05T06:38:04.240Z,116.00
2017-11-05T06:39:57.129Z,116.00
2017-11-05T06:40:57.107Z,108.00
2017-11-05T06:42:49.997Z,116.00
2017-11-05T06:43:49.979Z,116.00
2017-11-05T06:45:42.839Z,132.00
2017-11-05T06:46:42.833Z,128.00
2017-11-05T06:48:35.721Z,156.00
2017-11-05T06:49:35.698Z,144.00
2017-11-05T06:51:28.568Z,120.00
2017-11-05T06:52:28.567Z,84.00
2017-11-05T06:54:21.450Z,36.00
2017-11-05T06:55:21.426Z,24.00
2017-11-05T06:57:14.301Z,24.00
2017-11-05T06:58:14.293Z,24.00
2017-11-05T07:00:07.181Z,28.00
2017-11-05T07:01:07.159Z,28.00
2017-11-05T07:03:00.045Z,28.00
2017-11-05T07:04:00.027Z,28.00
2017-11-05T07:05:52.904Z,60.00
2017-11-05T07:06:52.902Z,96.00
2017-11-05T07:08:45.788Z,244.00
2017-11-05T07:09:45.762Z,276.00
2017-11-05T07:11:38.630Z,248.00
2017-11-05T07:12:38.626Z,228.00
2017-11-05T07:14:31.514Z,200.00
2017-11-05T07:15:31.491Z,196.00
2017-11-05T07:17:24.377Z,228.00
2017-11-05T07:18:24.359Z,236.00
2017-11-05T07:20:17.244Z,200.00
2017-11-05T07:21:17.226Z,200.00
2017-11-05T07:23:10.110Z,180.00
2017-11-05T07:24:10.089Z,136.00
2017-11-05T07:26:02.961Z,108.00
2017-11-05T07:27:02.954Z,136.00
2017-11-05T07:28:55.861Z,236.00
2017-11-05T07:29:55.837Z,240.00
2017-11-05T07:31:48.709Z,364.00
2017-11-05T07:32:48.704Z,448.00
2017-11-05T07:34:41.594Z,508.00
2017-11-05T07:35:41.569Z,504.00
2017-11-05T07:37:34.473Z,476.00
2017-11-05T07:38:34.444Z,480.00
2017-11-05T07:40:27.311Z,436.00
2017-11-05T07:41:27.303Z,416.00
2017-11-05T07:43:20.196Z,552.00
2017-11-05T07:44:20.166Z,692.00
2017-11-05T07:46:13.048Z,864.00
2017-11-05T07:47:13.045Z,920.00
2017-11-05T07:49:05.937Z,1052.00
2017-11-05T07:50:05.909Z,1088.00
2017-11-05T07:51:58.783Z,1124.00
2017-11-05T07:52:58.783Z,1104.00
2017-11-05T07:54:51.671Z,1072.00
2017-11-05T07:55:51.650Z,1124.00
2017-11-05T07:57:44.542Z,1164.00
2017-11-05T07:58:44.519Z,1156.00
2017-11-05T08:00:37.387Z,1084.00
2017-11-05T08:01:37.385Z,1040.00
2017-11-05T08:03:30.279Z,1020.00
2017-11-05T08:04:30.254Z,1032.00
2017-11-05T08:06:23.130Z,1032.00
2017-11-05T08:07:23.127Z,1004.00
2017-11-05T08:09:16.014Z,1012.00
2017-11-05T08:10:15.989Z,1028.00
2017-11-05T08:12:08.865Z,764.00
2017-11-05T08:13:08.857Z,664.00
2017-11-05T08:15:01.747Z,764.00
2017-11-05T08:16:01.721Z,720.00
2017-11-05T08:17:54.609Z,548.00
2017-11-05T08:18:54.587Z,472.00
2017-11-05T08:20:47.463Z,600.00
2017-11-05T08:21:47.459Z,580.00
2017-11-05T08:23:40.353Z,1044.00
2017-11-05T08:24:40.326Z,1136.00
2017-11-05T08:26:33.197Z,952.00
2017-11-05T08:27:33.192Z,808.00
2017-11-05T08:29:26.078Z,988.00
2017-11-05T08:30:26.057Z,1000.00
2017-11-05T08:32:18.927Z,1408.00
2017-11-05T08:33:18.920Z,1676.00
2017-11-05T08:35:11.809Z,1732.00
2017-11-05T08:36:11.786Z,1612.00
2017-11-05T08:38:04.724Z,1600.00
2017-11-05T08:39:04.645Z,1376.00
2017-11-05T08:40:57.513Z,1628.00
2017-11-05T08:41:57.508Z,1408.00
2017-11-05T08:43:50.390Z,1084.00
2017-11-05T08:44:50.365Z,1040.00
2017-11-05T08:46:43.234Z,1000.00
2017-11-05T08:47:43.229Z,976.00
2017-11-05T08:49:36.691Z,1116.00
2017-11-05T08:50:36.477Z,1332.00
2017-11-05T08:52:29.148Z,1520.00
2017-11-05T08:53:29.142Z,1512.00
2017-11-05T08:55:22.026Z,1444.00
2017-11-05T08:56:22.006Z,1424.00
2017-11-05T08:58:14.886Z,1428.00
2017-11-05T08:59:14.859Z,1456.00
2017-11-05T09:01:07.732Z,1456.00
2017-11-05T09:02:07.722Z,1428.00
2017-11-05T09:04:00.614Z,1360.00
2017-11-05T09:05:00.592Z,1340.00
2017-11-05T09:06:00.591Z,1328.00
2017-11-05T09:07:00.584Z,1312.00
2017-11-05T09:08:00.582Z,1280.00
2017-11-05T09:09:00.576Z,1240.00
2017-11-05T09:10:00.571Z,1192.00
2017-11-05T09:11:00.567Z,1168.00
2017-11-05T09:12:00.564Z,1144.00
2017-11-05T09:13:00.560Z,1136.00
2017-11-05T09:14:00.558Z,1116.00
2017-11-05T09:15:00.548Z,1108.00
2017-11-05T09:16:00.540Z,1104.00
2017-11-05T09:17:00.539Z,1108.00
2017-11-05T09:18:00.531Z,1096.00
2017-11-05T09:19:00.530Z,1092.00
2017-11-05T09:20:00.523Z,1108.00
2017-11-05T09:21:00.519Z,1108.00
2017-11-05T09:22:00.514Z,1108.00
2017-11-05T09:23:00.515Z,1108.00
2017-11-05T09:24:00.505Z,1100.00
2017-11-05T09:25:00.501Z,1108.00
2017-11-05T09:26:00.497Z,1120.00
2017-11-05T09:27:00.489Z,1140.00
2017-11-05T09:28:00.486Z,1160.00
2017-11-05T09:29:00.481Z,1184.00
2017-11-05T09:30:00.474Z,1216.00
2017-11-05T09:31:00.472Z,1252.00
2017-11-05T09:32:00.471Z,1304.00
2017-11-05T09:33:00.464Z,1368.00
2017-11-05T09:34:00.470Z,1436.00
2017-11-05T09:35:00.453Z,1524.00
2017-11-05T09:36:00.451Z,1612.00
2017-11-05T09:37:00.444Z,1692.00
2017-11-05T09:38:00.440Z,1772.00
2017-11-05T09:39:00.435Z,1832.00
2017-11-05T09:40:00.429Z,1876.00
2017-11-05T09:41:00.429Z,1908.00
2017-11-05T09:42:00.424Z,1928.00
2017-11-05T09:43:00.416Z,1940.00
2017-11-05T09:44:00.413Z,1952.00
2017-11-05T09:45:00.406Z,1964.00
2017-11-05T09:46:00.402Z,1968.00
2017-11-05T09:47:00.398Z,1980.00
2017-11-05T09:48:00.393Z,1984.00
2017-11-05T09:49:00.389Z,1988.00
2017-11-05T09:50:00.387Z,2000.00
2017-11-05T09:51:00.379Z,2000.00
2017-11-05T09:52:00.373Z,2028.00
2017-11-05T09:53:00.369Z,2036.00
2017-11-05T09:54:00.363Z,2032.00
2017-11-05T09:55:00.355Z,2044.00
2017-11-05T09:56:00.355Z,2056.00
2017-11-05T09:57:00.348Z,2064.00
2017-11-05T09:58:00.343Z,2076.00
2017-11-05T09:59:00.340Z,2068.00
2017-11-05T10:00:00.335Z,2044.00
2017-11-05T10:01:00.334Z,2016.00
2017-11-05T10:02:00.328Z,1968.00
2017-11-05T10:03:00.318Z,1940.00
2017-11-05T10:04:00.320Z,1908.00
2017-11-05T10:05:00.312Z,1884.00
2017-11-05T10:06:00.307Z,1860.00
2017-11-05T10:07:00.304Z,1840.00
2017-11-05T10:08:00.296Z,1804.00
2017-11-05T10:09:00.293Z,1760.00
2017-11-05T10:10:00.291Z,1724.00
2017-11-05T10:11:00.284Z,1704.00
2017-11-05T10:12:00.281Z,1712.00
2017-11-05T10:13:00.272Z,1720.00
2017-11-05T10:14:00.272Z,1724.00
2017-11-05T10:15:00.268Z,1732.00
2017-11-05T10:16:00.261Z,1756.00
2017-11-05T10:17:00.255Z,1772.00
2017-11-05T10:18:00.249Z,1824.00
2017-11-05T10:19:00.247Z,1852.00
2017-11-05T10:20:00.246Z,1912.00
2017-11-05T10:21:00.238Z,1952.00
2017-11-05T10:22:00.234Z,1976.00
2017-11-05T10:23:00.228Z,2020.00
2017-11-05T10:24:00.221Z,2104.00
2017-11-05T10:25:00.222Z,2132.00
2017-11-05T10:26:00.209Z,2172.00
2017-11-05T10:27:00.211Z,2224.00
2017-11-05T10:28:00.203Z,2220.00
2017-11-05T10:29:00.198Z,2232.00
2017-11-05T10:30:00.197Z,2216.00
2017-11-05T10:31:00.211Z,2192.00
2017-11-05T10:32:00.206Z,2152.00
2017-11-05T10:33:00.208Z,2132.00
2017-11-05T10:34:00.179Z,2100.00
2017-11-05T10:35:00.212Z,1956.00
2017-11-05T10:36:00.169Z,1720.00
2017-11-05T10:37:00.152Z,1304.00
2017-11-05T10:38:00.152Z,1112.00
2017-11-05T10:39:00.156Z,996.00
2017-11-05T10:40:00.144Z,984.00
2017-11-05T10:41:00.152Z,1084.00
2017-11-05T10:42:00.138Z,1248.00
2017-11-05T10:43:00.133Z,1416.00
2017-11-05T10:44:00.133Z,1564.00
2017-11-05T10:45:00.128Z,1680.00
2017-11-05T10:46:00.617Z,1904.00
2017-11-05T10:47:00.117Z,2048.00
2017-11-05T10:48:00.114Z,2160.00
2017-11-05T10:49:00.116Z,2352.00
2017-11-05T10:50:00.106Z,2548.00
2017-11-05T10:51:00.101Z,2712.00
2017-11-05T10:52:00.096Z,2772.00
2017-11-05T10:53:00.092Z,2844.00
2017-11-05T10:54:00.097Z,2832.00
2017-11-05T10:55:00.104Z,2808.00
2017-11-05T10:56:00.093Z,2800.00
2017-11-05T10:57:00.079Z,2836.00
2017-11-05T10:58:00.084Z,2856.00
2017-11-05T10:59:00.076Z,2888.00
2017-11-05T11:00:00.066Z,2900.00
2017-11-05T11:01:00.078Z,2892.00
2017-11-05T11:02:00.052Z,2888.00
2017-11-05T11:03:00.045Z,2892.00
2017-11-05T11:04:00.043Z,2916.00
2017-11-05T11:05:00.046Z,2960.00
2017-11-05T11:06:00.034Z,2988.00
2017-11-05T11:07:00.027Z,3008.00
2017-11-05T11:08:00.023Z,2984.00
2017-11-05T11:09:00.022Z,2940.00
2017-11-05T11:10:00.025Z,2880.00
2017-11-05T11:11:00.012Z,2816.00
2017-11-05T11:12:00.012Z,2788.00
2017-11-05T11:12:59.997Z,2776.00
2017-11-05T11:13:59.998Z,2756.00
2017-11-05T11:14:59.999Z,2732.00
2017-11-05T11:15:59.985Z,2716.00
2017-11-05T11:16:59.981Z,2712.00
2017-11-05T11:17:59.977Z,2712.00
2017-11-05T11:18:59.974Z,2748.00
2017-11-05T11:19:59.975Z,2776.00
2017-11-05T11:20:59.969Z,2792.00
2017-11-05T11:21:59.962Z,2780.00
2017-11-05T11:22:59.955Z,2800.00
2017-11-05T11:23:59.960Z,2828.00
2017-11-05T11:24:59.952Z,2884.00
2017-11-05T11:25:59.944Z,2932.00
2017-11-05T11:26:59.938Z,2976.00
2017-11-05T11:27:59.936Z,3024.00
2017-11-05T11:28:59.930Z,3080.00
2017-11-05T11:29:59.920Z,3188.00
2017-11-05T11:30:59.928Z,3296.00
2017-11-05T11:31:59.920Z,3404.00
2017-11-05T11:32:59.913Z,3512.00
2017-11-05T11:33:59.910Z,3668.00
2017-11-05T11:34:59.906Z,3780.00
2017-11-05T11:35:59.902Z,3856.00
2017-11-05T11:36:59.895Z,3984.00
2017-11-05T11:37:59.900Z,3932.00
2017-11-05T11:38:59.886Z,3892.00
2017-11-05T11:39:59.886Z,3804.00
2017-11-05T11:40:59.874Z,3672.00
2017-11-05T11:41:59.874Z,3508.00
2017-11-05T11:42:59.872Z,3636.00
2017-11-05T11:43:59.867Z,3360.00
2017-11-05T11:44:59.861Z,3204.00
2017-11-05T11:45:59.856Z,3068.00
2017-11-05T11:46:59.850Z,3324.00
2017-11-05T11:47:59.848Z,4068.00
2017-11-05T11:48:59.846Z,4196.00
2017-11-05T11:49:59.839Z,4028.00
2017-11-05T11:50:59.837Z,4028.00
2017-11-05T11:51:59.830Z,4088.00
2017-11-05T11:52:59.825Z,4156.00
2017-11-05T11:53:59.819Z,4208.00
2017-11-05T11:54:59.829Z,4292.00
2017-11-05T11:55:59.816Z,4088.00
2017-11-05T11:56:59.808Z,3680.00
2017-11-05T11:57:59.805Z,3244.00
2017-11-05T11:58:59.802Z,3084.00
2017-11-05T11:59:59.798Z,2960.00
2017-11-05T12:00:59.794Z,3140.00
2017-11-05T12:01:59.788Z,2956.00
2017-11-05T12:02:59.783Z,2492.00
2017-11-05T12:03:59.779Z,2168.00
2017-11-05T12:04:59.779Z,2328.00
2017-11-05T12:05:59.771Z,2136.00
2017-11-05T12:06:59.766Z,1760.00
2017-11-05T12:07:59.769Z,1488.00
2017-11-05T12:08:59.759Z,1396.00
2017-11-05T12:09:59.766Z,1328.00
2017-11-05T12:10:59.749Z,1220.00
2017-11-05T12:11:59.747Z,1088.00
2017-11-05T12:12:59.743Z,1016.00
2017-11-05T12:13:59.734Z,884.00
2017-11-05T12:14:59.732Z,1032.00
2017-11-05T12:15:59.734Z,1120.00
2017-11-05T12:16:59.728Z,1172.00
2017-11-05T12:17:59.720Z,1084.00
2017-11-05T12:18:59.715Z,1284.00
2017-11-05T12:19:59.710Z,1436.00
2017-11-05T12:20:59.713Z,1636.00
2017-11-05T12:21:59.702Z,1864.00
2017-11-05T12:22:59.697Z,2104.00
2017-11-05T12:23:59.691Z,2212.00
2017-11-05T12:24:59.693Z,2524.00
2017-11-05T12:25:59.687Z,2868.00
2017-11-05T12:26:59.686Z,3244.00
2017-11-05T12:27:59.679Z,3768.00
2017-11-05T12:28:59.673Z,4196.00
2017-11-05T12:29:59.669Z,4444.00
2017-11-05T12:30:59.665Z,4532.00
2017-11-05T12:31:59.661Z,4460.00
2017-11-05T12:32:59.654Z,4348.00
2017-11-05T12:33:59.649Z,4172.00
2017-11-05T12:34:59.654Z,3968.00
2017-11-05T12:35:59.646Z,3872.00
2017-11-05T12:36:59.636Z,3848.00
2017-11-05T12:37:59.634Z,3816.00
2017-11-05T12:38:59.636Z,3712.00
2017-11-05T12:39:59.625Z,3792.00
2017-11-05T12:40:59.623Z,3860.00
2017-11-05T12:41:59.621Z,3808.00
2017-11-05T12:42:59.612Z,3736.00
2017-11-05T12:43:59.610Z,3748.00
2017-11-05T12:44:59.606Z,3636.00
2017-11-05T12:45:59.599Z,3512.00
2017-11-05T12:46:59.597Z,3248.00
2017-11-05T12:47:59.583Z,3112.00
2017-11-05T12:48:59.589Z,3212.00
2017-11-05T12:49:59.580Z,3548.00
2017-11-05T12:50:59.576Z,3588.00
2017-11-05T12:51:59.575Z,3496.00
2017-11-05T12:52:59.594Z,3424.00
2017-11-05T12:53:59.564Z,3436.00
2017-11-05T12:54:59.556Z,3348.00
2017-11-05T12:55:59.556Z,3040.00
2017-11-05T12:56:59.554Z,2580.00
2017-11-05T12:57:59.551Z,2120.00
2017-11-05T12:58:59.546Z,1656.00
2017-11-05T12:59:59.537Z,1332.00
2017-11-05T13:00:59.535Z,1208.00
2017-11-05T13:01:59.532Z,796.00
2017-11-05T13:02:59.526Z,776.00
2017-11-05T13:03:59.524Z,704.00
2017-11-05T13:05:59.516Z,572.00
2017-11-05T13:06:59.511Z,552.00
2017-11-05T13:07:59.507Z,520.00
2017-11-05T13:08:59.504Z,472.00
2017-11-05T13:09:59.498Z,408.00
2017-11-05T13:10:59.490Z,388.00
2017-11-05T13:12:20.496Z,380.00
2017-11-05T13:12:59.484Z,396.00
2017-11-05T13:13:59.486Z,424.00
2017-11-05T13:14:59.475Z,444.00
2017-11-05T13:15:59.473Z,492.00
2017-11-05T13:16:59.466Z,556.00
2017-11-05T13:18:20.468Z,620.00
2017-11-05T13:18:59.454Z,692.00
2017-11-05T13:19:59.453Z,796.00
2017-11-05T13:20:59.444Z,908.00
2017-11-05T13:21:59.444Z,1036.00
2017-11-05T13:22:59.436Z,1180.00
2017-11-05T13:24:20.441Z,1356.00
2017-11-05T13:24:59.426Z,1556.00
2017-11-05T13:25:59.421Z,1808.00
2017-11-05T13:26:59.420Z,2076.00
2017-11-05T13:27:59.414Z,2364.00
2017-11-05T13:28:59.410Z,2644.00
2017-11-05T13:30:20.410Z,2948.00
2017-11-05T13:30:59.398Z,3128.00
2017-11-05T13:31:59.393Z,3104.00
2017-11-05T13:32:59.392Z,3044.00
2017-11-05T13:33:59.385Z,2984.00
2017-11-05T13:34:59.376Z,2960.00
2017-11-05T13:36:20.382Z,2920.00
2017-11-05T13:36:59.368Z,2864.00
2017-11-05T13:37:59.365Z,2804.00
2017-11-05T13:38:59.364Z,2740.00
2017-11-05T13:39:59.358Z,2656.00
2017-11-05T13:40:59.353Z,2564.00
2017-11-05T13:42:20.355Z,2528.00
2017-11-05T13:42:59.342Z,2400.00
2017-11-05T13:43:59.343Z,2144.00
2017-11-05T13:44:59.349Z,1808.00
2017-11-05T13:45:59.326Z,1508.00
2017-11-05T13:46:59.324Z,1480.00
2017-11-05T13:48:20.328Z,1640.00
2017-11-05T13:48:59.314Z,1856.00
2017-11-05T13:49:59.314Z,1816.00
2017-11-05T13:50:59.306Z,1880.00
2017-11-05T13:51:59.300Z,1884.00
2017-11-05T13:52:59.298Z,1828.00
2017-11-05T13:54:20.304Z,1732.00
2017-11-05T13:54:59.304Z,1716.00
2017-11-05T13:55:59.282Z,1684.00
2017-11-05T13:56:59.282Z,1708.00
2017-11-05T13:57:59.277Z,1776.00
2017-11-05T13:58:59.274Z,1836.00
2017-11-05T14:00:20.274Z,1752.00
2017-11-05T14:00:59.264Z,1744.00
2017-11-05T14:01:59.258Z,1900.00
2017-11-05T14:02:59.253Z,1780.00
2017-11-05T14:03:59.263Z,1808.00
2017-11-05T14:04:59.249Z,1888.00
2017-11-05T14:06:20.245Z,1984.00
2017-11-05T14:06:59.236Z,2008.00
2017-11-05T14:07:59.232Z,2056.00
2017-11-05T14:08:59.229Z,2056.00
2017-11-05T14:09:59.221Z,2044.00
2017-11-05T14:10:59.218Z,2020.00
2017-11-05T14:12:20.222Z,1996.00
2017-11-05T14:12:59.209Z,1972.00
2017-11-05T14:13:59.211Z,1948.00
2017-11-05T14:14:59.202Z,1920.00
2017-11-05T14:15:59.220Z,1896.00
2017-11-05T14:16:59.193Z,1872.00
2017-11-05T14:18:20.195Z,1848.00
2017-11-05T14:18:59.181Z,1820.00
2017-11-05T14:19:59.179Z,1804.00
2017-11-05T14:20:59.179Z,1788.00
2017-11-05T14:21:59.171Z,1788.00
2017-11-05T14:22:59.166Z,1776.00
2017-11-05T14:24:20.173Z,1760.00
2017-11-05T14:24:59.161Z,1744.00
2017-11-05T14:25:59.157Z,1728.00
2017-11-05T14:26:59.150Z,1700.00
2017-11-05T14:27:59.149Z,1664.00
2017-11-05T14:28:59.142Z,1624.00
2017-11-05T14:30:20.146Z,1576.00
2017-11-05T14:30:59.132Z,1536.00
2017-11-05T14:31:59.128Z,1504.00
2017-11-05T14:32:59.123Z,1488.00
2017-11-05T14:33:59.123Z,1480.00
2017-11-05T14:34:59.116Z,1476.00
2017-11-05T14:36:20.272Z,1472.00
2017-11-05T14:36:59.111Z,1460.00
2017-11-05T14:37:59.107Z,1444.00
2017-11-05T14:38:59.105Z,1420.00
2017-11-05T14:39:59.096Z,1396.00
2017-11-05T14:40:59.095Z,1384.00
2017-11-05T14:42:20.097Z,1384.00
2017-11-05T14:42:59.083Z,1392.00
2017-11-05T14:43:59.082Z,1392.00
2017-11-05T14:44:59.078Z,1392.00
2017-11-05T14:45:59.077Z,1384.00
2017-11-05T14:46:59.082Z,1372.00
2017-11-05T14:48:20.071Z,1356.00
2017-11-05T14:48:59.070Z,1344.00
2017-11-05T14:49:59.055Z,1344.00
2017-11-05T14:50:59.054Z,1352.00
2017-11-05T14:51:59.051Z,1364.00
2017-11-05T14:52:59.045Z,1380.00
2017-11-05T14:54:20.046Z,1384.00
2017-11-05T14:54:59.035Z,1376.00
2017-11-05T14:55:59.034Z,1352.00
2017-11-05T14:56:59.032Z,1320.00
2017-11-05T14:57:59.028Z,1268.00
2017-11-05T14:58:59.020Z,1216.00
2017-11-05T15:00:20.024Z,1168.00
2017-11-05T15:00:59.015Z,1136.00
2017-11-05T15:01:59.007Z,1116.00
2017-11-05T15:02:59.004Z,1100.00
2017-11-05T15:03:59.002Z,1088.00
2017-11-05T15:04:58.998Z,1064.00
2017-11-05T15:06:20.002Z,1048.00
2017-11-05T15:06:58.988Z,1032.00
2017-11-05T15:07:58.984Z,1012.00
2017-11-05T15:08:58.985Z,996.00
2017-11-05T15:09:58.981Z,976.00
2017-11-05T15:10:59.002Z,956.00
2017-11-05T15:12:19.980Z,932.00
2017-11-05T15:12:58.992Z,912.00
2017-11-05T15:13:58.970Z,896.00
2017-11-05T15:14:58.972Z,884.00
2017-11-05T15:15:58.967Z,868.00
2017-11-05T15:16:58.959Z,856.00
2017-11-05T15:18:19.954Z,836.00
2017-11-05T15:18:58.943Z,808.00
2017-11-05T15:19:58.939Z,768.00
2017-11-05T15:20:58.940Z,728.00